ITY1004 LIMC-LICA
Flight info
| Callsign | ITY1004 |
|---|---|
| Flight time | 1h 29m |
| Altitude | 39000 |
| Route | ROBAS DCT LOGDI DCT EKDIR DCT POLIT DCT EVINO/N0321F190 M620 ARBUM |
| Aircraft | A20N/M-SDE2E3FGHIRWXY/LB1 |
Departure
| Time | 2026-04-25 20:08 |
|---|---|
| Airport | Milan Malpensa International Airport (LIMC) |
Arrival
| Time | 2026-04-25 21:38 |
|---|---|
| Airport | Lamezia Terme Sant'Eufemia International Airport (LICA) |
| Time | Latitude | Longitude | Altitude | Speed | Heading |
|---|---|---|---|---|---|
| 2026-04-25 18:31 | 45.63163 | 8.71431 | 749 ft | 0 kts | 214° |
| 2026-04-25 19:52 | 45.63168 | 8.71435 | 722 ft | 3 kts | 214° |
| 2026-04-25 19:52 | 45.63183 | 8.71450 | 744 ft | 3 kts | 214° |
| 2026-04-25 19:53 | 45.63198 | 8.71465 | 746 ft | 3 kts | 214° |
| 2026-04-25 19:53 | 45.63213 | 8.71480 | 748 ft | 3 kts | 214° |
| 2026-04-25 19:53 | 45.63228 | 8.71494 | 745 ft | 3 kts | 214° |
| 2026-04-25 19:53 | 45.63242 | 8.71508 | 750 ft | 3 kts | 214° |
| 2026-04-25 19:54 | 45.63257 | 8.71516 | 747 ft | 0 kts | 155° |
| 2026-04-25 19:54 | 45.63256 | 8.71516 | 747 ft | 0 kts | 155° |
| 2026-04-25 19:56 | 45.63251 | 8.71523 | 747 ft | 2 kts | 133° |
| 2026-04-25 19:56 | 45.63253 | 8.71554 | 749 ft | 4 kts | 62° |
| 2026-04-25 19:56 | 45.63266 | 8.71597 | 747 ft | 5 kts | 71° |
| 2026-04-25 19:56 | 45.63274 | 8.71649 | 748 ft | 6 kts | 79° |
| 2026-04-25 19:57 | 45.63283 | 8.71713 | 751 ft | 7 kts | 78° |
| 2026-04-25 19:57 | 45.63290 | 8.71787 | 748 ft | 8 kts | 86° |
| 2026-04-25 19:57 | 45.63263 | 8.71849 | 747 ft | 8 kts | 151° |
| 2026-04-25 19:57 | 45.63204 | 8.71870 | 748 ft | 10 kts | 167° |
| 2026-04-25 19:58 | 45.63133 | 8.71895 | 747 ft | 12 kts | 165° |
| 2026-04-25 19:58 | 45.63050 | 8.71924 | 746 ft | 13 kts | 166° |
| 2026-04-25 19:58 | 45.62957 | 8.71955 | 743 ft | 14 kts | 167° |
| 2026-04-25 19:58 | 45.62855 | 8.71985 | 740 ft | 16 kts | 170° |
| 2026-04-25 19:59 | 45.62743 | 8.72019 | 740 ft | 17 kts | 168° |
| 2026-04-25 19:59 | 45.62624 | 8.72052 | 738 ft | 18 kts | 171° |
| 2026-04-25 19:59 | 45.62498 | 8.72092 | 735 ft | 19 kts | 163° |
| 2026-04-25 19:59 | 45.62367 | 8.72124 | 733 ft | 19 kts | 169° |
| 2026-04-25 20:00 | 45.62233 | 8.72161 | 731 ft | 20 kts | 166° |
| 2026-04-25 20:00 | 45.62142 | 8.72189 | 729 ft | 20 kts | 169° |
| 2026-04-25 20:00 | 45.61951 | 8.72237 | 725 ft | 21 kts | 168° |
| 2026-04-25 20:00 | 45.61805 | 8.72275 | 723 ft | 22 kts | 171° |
| 2026-04-25 20:01 | 45.61522 | 8.72354 | 721 ft | 6 kts | 166° |
| 2026-04-25 20:01 | 45.61473 | 8.72371 | 719 ft | 8 kts | 163° |
| 2026-04-25 20:01 | 45.61417 | 8.72417 | 719 ft | 11 kts | 128° |
| 2026-04-25 20:02 | 45.61355 | 8.72492 | 714 ft | 13 kts | 158° |
| 2026-04-25 20:02 | 45.61256 | 8.72527 | 704 ft | 16 kts | 169° |
| 2026-04-25 20:02 | 45.61128 | 8.72563 | 700 ft | 21 kts | 161° |
| 2026-04-25 20:02 | 45.61075 | 8.72596 | 706 ft | 6 kts | 202° |
| 2026-04-25 20:03 | 45.61054 | 8.72533 | 702 ft | 9 kts | 259° |
| 2026-04-25 20:03 | 45.61038 | 8.72422 | 704 ft | 14 kts | 258° |
| 2026-04-25 20:03 | 45.60968 | 8.72330 | 704 ft | 17 kts | 187° |
| 2026-04-25 20:03 | 45.60835 | 8.72343 | 703 ft | 21 kts | 166° |
| 2026-04-25 20:04 | 45.60692 | 8.72391 | 702 ft | 9 kts | 150° |
| 2026-04-25 20:04 | 45.60652 | 8.72445 | 704 ft | 10 kts | 121° |
| 2026-04-25 20:04 | 45.60634 | 8.72565 | 706 ft | 15 kts | 96° |
| 2026-04-25 20:04 | 45.60623 | 8.72737 | 703 ft | 20 kts | 95° |
| 2026-04-25 20:05 | 45.60608 | 8.72955 | 702 ft | 24 kts | 96° |
| 2026-04-25 20:05 | 45.60602 | 8.73208 | 702 ft | 27 kts | 68° |
| 2026-04-25 20:05 | 45.60764 | 8.73355 | 704 ft | 30 kts | 22° |
| 2026-04-25 20:05 | 45.60980 | 8.73390 | 702 ft | 33 kts | 351° |
| 2026-04-25 20:06 | 45.61217 | 8.73330 | 700 ft | 36 kts | 348° |
| 2026-04-25 20:06 | 45.61426 | 8.73278 | 714 ft | 20 kts | 349° |
| 2026-04-25 20:06 | 45.61573 | 8.73244 | 714 ft | 23 kts | 9° |
| 2026-04-25 20:06 | 45.61626 | 8.73399 | 710 ft | 17 kts | 88° |
| 2026-04-25 20:07 | 45.61598 | 8.73556 | 701 ft | 1 kts | 109° |
| 2026-04-25 20:07 | 45.61592 | 8.73583 | 703 ft | 8 kts | 108° |
| 2026-04-25 20:07 | 45.61607 | 8.73691 | 703 ft | 11 kts | 53° |
| 2026-04-25 20:07 | 45.61696 | 8.73721 | 706 ft | 10 kts | 349° |
| 2026-04-25 20:08 | 45.61766 | 8.73702 | 714 ft | 41 kts | 349° |
| 2026-04-25 20:08 | 45.62337 | 8.73534 | 726 ft | 126 kts | 349° |
| 2026-04-25 20:08 | 45.63444 | 8.73244 | 886 ft | 187 kts | 351° |
| 2026-04-25 20:08 | 45.64780 | 8.73188 | 1610 ft | 196 kts | 12° |
| 2026-04-25 20:09 | 45.65964 | 8.74124 | 2380 ft | 199 kts | 47° |
| 2026-04-25 20:09 | 45.66543 | 8.75929 | 3025 ft | 210 kts | 89° |
| 2026-04-25 20:09 | 45.66050 | 8.77864 | 3622 ft | 216 kts | 133° |
| 2026-04-25 20:09 | 45.64751 | 8.78907 | 3934 ft | 219 kts | 167° |
| 2026-04-25 20:10 | 45.63307 | 8.79642 | 4009 ft | 223 kts | 148° |
| 2026-04-25 20:10 | 45.62281 | 8.81276 | 4020 ft | 223 kts | 114° |
| 2026-04-25 20:10 | 45.62031 | 8.83430 | 4022 ft | 221 kts | 81° |
| 2026-04-25 20:10 | 45.62535 | 8.85481 | 4028 ft | 219 kts | 62° |
| 2026-04-25 20:11 | 45.63295 | 8.87372 | 4020 ft | 220 kts | 58° |
| 2026-04-25 20:11 | 45.63929 | 8.89360 | 4258 ft | 225 kts | 85° |
| 2026-04-25 20:11 | 45.63526 | 8.91503 | 5085 ft | 232 kts | 122° |
| 2026-04-25 20:11 | 45.62592 | 8.93547 | 5633 ft | 258 kts | 122° |
| 2026-04-25 20:12 | 45.61556 | 8.95747 | 6340 ft | 273 kts | 124° |
| 2026-04-25 20:12 | 45.60450 | 8.97958 | 7195 ft | 280 kts | 125° |
| 2026-04-25 20:12 | 45.59279 | 9.00202 | 8156 ft | 284 kts | 126° |
| 2026-04-25 20:12 | 45.58873 | 9.00967 | 8509 ft | 286 kts | 126° |
| 2026-04-25 20:13 | 45.56841 | 9.04742 | 10184 ft | 292 kts | 127° |
| 2026-04-25 20:13 | 45.55555 | 9.07108 | 10755 ft | 312 kts | 127° |
| 2026-04-25 20:13 | 45.54185 | 9.09616 | 11374 ft | 327 kts | 127° |
| 2026-04-25 20:13 | 45.52762 | 9.12210 | 12192 ft | 335 kts | 127° |
| 2026-04-25 20:14 | 45.51314 | 9.14846 | 13102 ft | 340 kts | 127° |
| 2026-04-25 20:14 | 45.49843 | 9.17522 | 13993 ft | 346 kts | 127° |
| 2026-04-25 20:14 | 45.48339 | 9.20256 | 14762 ft | 353 kts | 127° |
| 2026-04-25 20:14 | 45.46811 | 9.23032 | 15533 ft | 360 kts | 127° |
| 2026-04-25 20:15 | 45.45253 | 9.25862 | 16303 ft | 366 kts | 127° |
| 2026-04-25 20:15 | 45.43663 | 9.28745 | 17060 ft | 373 kts | 127° |
| 2026-04-25 20:15 | 45.42044 | 9.31679 | 17810 ft | 380 kts | 127° |
| 2026-04-25 20:15 | 45.40419 | 9.34621 | 18529 ft | 386 kts | 127° |
| 2026-04-25 20:16 | 45.38753 | 9.37633 | 19277 ft | 390 kts | 127° |
| 2026-04-25 20:16 | 45.37062 | 9.40687 | 19928 ft | 395 kts | 127° |
| 2026-04-25 20:16 | 45.35344 | 9.43786 | 20574 ft | 400 kts | 127° |
| 2026-04-25 20:16 | 45.33610 | 9.46913 | 21218 ft | 405 kts | 127° |
| 2026-04-25 20:17 | 45.31856 | 9.50069 | 21860 ft | 409 kts | 127° |
| 2026-04-25 20:17 | 45.30077 | 9.53268 | 22501 ft | 414 kts | 127° |
| 2026-04-25 20:17 | 45.28277 | 9.56502 | 23125 ft | 419 kts | 127° |
| 2026-04-25 20:17 | 45.26479 | 9.59728 | 23718 ft | 423 kts | 127° |
| 2026-04-25 20:18 | 45.24643 | 9.63019 | 24212 ft | 427 kts | 127° |
| 2026-04-25 20:18 | 45.22787 | 9.66339 | 24741 ft | 430 kts | 127° |
| 2026-04-25 20:18 | 45.20912 | 9.69674 | 25222 ft | 435 kts | 129° |
| 2026-04-25 20:18 | 45.18823 | 9.72804 | 25726 ft | 439 kts | 138° |
| 2026-04-25 20:19 | 45.16443 | 9.75566 | 26215 ft | 443 kts | 143° |
| 2026-04-25 20:19 | 45.13978 | 9.78089 | 26761 ft | 443 kts | 146° |
| 2026-04-25 20:19 | 45.11421 | 9.80553 | 27287 ft | 445 kts | 147° |
| 2026-04-25 20:19 | 45.08840 | 9.82992 | 27761 ft | 448 kts | 148° |
| 2026-04-25 20:20 | 45.06245 | 9.85448 | 28193 ft | 450 kts | 147° |
| 2026-04-25 20:20 | 45.03627 | 9.87952 | 28647 ft | 453 kts | 147° |
| 2026-04-25 20:20 | 45.01012 | 9.90479 | 29096 ft | 456 kts | 147° |
| 2026-04-25 20:20 | 44.98391 | 9.93030 | 29525 ft | 458 kts | 147° |
| 2026-04-25 20:21 | 44.95760 | 9.95601 | 29916 ft | 462 kts | 147° |
| 2026-04-25 20:21 | 44.93145 | 9.98159 | 30019 ft | 464 kts | 147° |
| 2026-04-25 20:21 | 44.87838 | 10.03347 | 30148 ft | 466 kts | 147° |
| 2026-04-25 20:22 | 44.85168 | 10.05951 | 30524 ft | 467 kts | 147° |
| 2026-04-25 20:22 | 44.84267 | 10.06830 | 30641 ft | 468 kts | 147° |
| 2026-04-25 20:22 | 44.79800 | 10.11175 | 31277 ft | 470 kts | 147° |
| 2026-04-25 20:22 | 44.77104 | 10.13792 | 31646 ft | 471 kts | 147° |
| 2026-04-25 20:23 | 44.74413 | 10.16403 | 32120 ft | 469 kts | 147° |
| 2026-04-25 20:23 | 44.71734 | 10.19003 | 32665 ft | 465 kts | 147° |
| 2026-04-25 20:23 | 44.69099 | 10.21619 | 33251 ft | 461 kts | 146° |
| 2026-04-25 20:23 | 44.66502 | 10.24254 | 33706 ft | 460 kts | 146° |
| 2026-04-25 20:24 | 44.63922 | 10.26899 | 34114 ft | 459 kts | 146° |
| 2026-04-25 20:24 | 44.61354 | 10.29537 | 34470 ft | 458 kts | 146° |
| 2026-04-25 20:24 | 44.58781 | 10.32175 | 34859 ft | 457 kts | 146° |
| 2026-04-25 20:24 | 44.56212 | 10.34801 | 35199 ft | 456 kts | 147° |
| 2026-04-25 20:25 | 44.53642 | 10.37419 | 35546 ft | 455 kts | 147° |
| 2026-04-25 20:25 | 44.51108 | 10.39993 | 35905 ft | 453 kts | 147° |
| 2026-04-25 20:25 | 44.48558 | 10.42579 | 36254 ft | 451 kts | 147° |
| 2026-04-25 20:25 | 44.46016 | 10.45151 | 36567 ft | 450 kts | 147° |
| 2026-04-25 20:26 | 44.43474 | 10.47721 | 36871 ft | 450 kts | 147° |
| 2026-04-25 20:26 | 44.41798 | 10.49414 | 37072 ft | 449 kts | 147° |
| 2026-04-25 20:26 | 44.39269 | 10.51965 | 37366 ft | 448 kts | 147° |
| 2026-04-25 20:26 | 44.36734 | 10.54520 | 37661 ft | 447 kts | 147° |
| 2026-04-25 20:27 | 44.34211 | 10.57060 | 37945 ft | 446 kts | 147° |
| 2026-04-25 20:27 | 44.31683 | 10.59603 | 38211 ft | 446 kts | 148° |
| 2026-04-25 20:27 | 44.29164 | 10.62134 | 38466 ft | 445 kts | 148° |
| 2026-04-25 20:27 | 44.26657 | 10.64650 | 38738 ft | 445 kts | 148° |
| 2026-04-25 20:28 | 44.24169 | 10.67144 | 38948 ft | 444 kts | 148° |
| 2026-04-25 20:28 | 44.21655 | 10.69662 | 39103 ft | 445 kts | 148° |
| 2026-04-25 20:28 | 44.16695 | 10.74884 | 39131 ft | 446 kts | 145° |
| 2026-04-25 20:29 | 44.11849 | 10.80267 | 39132 ft | 445 kts | 144° |
| 2026-04-25 20:29 | 44.07044 | 10.85612 | 39130 ft | 444 kts | 145° |
| 2026-04-25 20:30 | 44.02197 | 10.90956 | 39118 ft | 443 kts | 145° |
| 2026-04-25 20:30 | 43.97348 | 10.96268 | 39112 ft | 443 kts | 145° |
| 2026-04-25 20:31 | 43.92523 | 11.01537 | 39104 ft | 443 kts | 145° |
| 2026-04-25 20:31 | 43.87669 | 11.06827 | 39093 ft | 443 kts | 145° |
| 2026-04-25 20:32 | 43.82823 | 11.12099 | 39102 ft | 442 kts | 145° |
| 2026-04-25 20:32 | 43.77974 | 11.17364 | 39102 ft | 442 kts | 145° |
| 2026-04-25 20:33 | 43.73160 | 11.22579 | 39102 ft | 442 kts | 145° |
| 2026-04-25 20:33 | 43.69125 | 11.26941 | 39110 ft | 442 kts | 145° |
| 2026-04-25 20:34 | 43.63457 | 11.33056 | 39111 ft | 441 kts | 145° |
| 2026-04-25 20:34 | 43.58621 | 11.38264 | 39110 ft | 440 kts | 145° |
| 2026-04-25 20:35 | 43.53826 | 11.43416 | 39113 ft | 440 kts | 145° |
| 2026-04-25 20:35 | 43.48994 | 11.48594 | 39112 ft | 440 kts | 145° |
| 2026-04-25 20:36 | 43.44152 | 11.53773 | 39104 ft | 440 kts | 145° |
| 2026-04-25 20:36 | 43.39319 | 11.58934 | 39119 ft | 438 kts | 145° |
| 2026-04-25 20:37 | 43.34538 | 11.64028 | 39121 ft | 438 kts | 145° |
| 2026-04-25 20:37 | 43.29711 | 11.69159 | 39118 ft | 438 kts | 145° |
| 2026-04-25 20:38 | 43.24891 | 11.74274 | 39109 ft | 438 kts | 145° |
| 2026-04-25 20:38 | 43.20058 | 11.79390 | 39107 ft | 437 kts | 145° |
| 2026-04-25 20:39 | 43.15279 | 11.84440 | 39114 ft | 436 kts | 145° |
| 2026-04-25 20:39 | 43.11248 | 11.88692 | 39107 ft | 436 kts | 145° |
| 2026-04-25 20:40 | 43.05651 | 11.94583 | 39109 ft | 436 kts | 145° |
| 2026-04-25 20:40 | 43.00838 | 11.99638 | 39113 ft | 436 kts | 145° |
| 2026-04-25 20:41 | 42.96016 | 12.04692 | 39106 ft | 435 kts | 144° |
| 2026-04-25 20:41 | 42.91210 | 12.09718 | 39105 ft | 435 kts | 144° |
| 2026-04-25 20:42 | 42.86438 | 12.14700 | 39109 ft | 435 kts | 144° |
| 2026-04-25 20:42 | 42.81620 | 12.19719 | 39095 ft | 435 kts | 144° |
| 2026-04-25 20:43 | 42.76813 | 12.24718 | 39101 ft | 435 kts | 144° |
| 2026-04-25 20:43 | 42.72033 | 12.29677 | 39098 ft | 434 kts | 144° |
| 2026-04-25 20:44 | 42.67234 | 12.34647 | 39095 ft | 434 kts | 144° |
| 2026-04-25 20:44 | 42.62427 | 12.39614 | 39099 ft | 434 kts | 144° |
| 2026-04-25 20:45 | 42.57621 | 12.44571 | 39104 ft | 434 kts | 144° |
| 2026-04-25 20:45 | 42.52815 | 12.49519 | 39105 ft | 433 kts | 144° |
| 2026-04-25 20:46 | 42.48015 | 12.54451 | 39108 ft | 433 kts | 144° |
| 2026-04-25 20:46 | 42.43214 | 12.59373 | 39103 ft | 432 kts | 144° |
| 2026-04-25 20:47 | 42.38417 | 12.64282 | 39109 ft | 432 kts | 144° |
| 2026-04-25 20:47 | 42.33645 | 12.69156 | 39104 ft | 432 kts | 144° |
| 2026-04-25 20:48 | 42.28844 | 12.74049 | 39112 ft | 432 kts | 144° |
| 2026-04-25 20:48 | 42.24044 | 12.78933 | 39107 ft | 431 kts | 144° |
| 2026-04-25 20:49 | 42.19253 | 12.83798 | 39111 ft | 431 kts | 144° |
| 2026-04-25 20:49 | 42.14464 | 12.88651 | 39111 ft | 430 kts | 144° |
| 2026-04-25 20:50 | 42.09699 | 12.93471 | 39122 ft | 431 kts | 144° |
| 2026-04-25 20:50 | 42.04903 | 12.98312 | 39124 ft | 430 kts | 144° |
| 2026-04-25 20:51 | 42.00106 | 13.03145 | 39118 ft | 430 kts | 144° |
| 2026-04-25 20:51 | 41.95303 | 13.07975 | 39125 ft | 431 kts | 144° |
| 2026-04-25 20:52 | 41.91318 | 13.11974 | 39123 ft | 430 kts | 144° |
| 2026-04-25 20:52 | 41.85738 | 13.17566 | 39129 ft | 431 kts | 145° |
| 2026-04-25 20:53 | 41.80931 | 13.22370 | 39129 ft | 429 kts | 145° |
| 2026-04-25 20:53 | 41.76139 | 13.27153 | 39130 ft | 428 kts | 144° |
| 2026-04-25 20:54 | 41.71355 | 13.31917 | 39122 ft | 428 kts | 145° |
| 2026-04-25 20:54 | 41.66601 | 13.36643 | 39127 ft | 428 kts | 144° |
| 2026-04-25 20:55 | 41.61809 | 13.41398 | 39122 ft | 428 kts | 144° |
| 2026-04-25 20:55 | 41.57033 | 13.46129 | 39121 ft | 427 kts | 145° |
| 2026-04-25 20:56 | 41.52292 | 13.50815 | 39116 ft | 426 kts | 144° |
| 2026-04-25 20:56 | 41.47529 | 13.55515 | 39119 ft | 425 kts | 145° |
| 2026-04-25 20:57 | 41.42767 | 13.60204 | 39110 ft | 425 kts | 144° |
| 2026-04-25 20:57 | 41.38001 | 13.64890 | 39107 ft | 425 kts | 144° |
| 2026-04-25 20:58 | 41.33238 | 13.69562 | 39109 ft | 424 kts | 144° |
| 2026-04-25 20:58 | 41.28496 | 13.74206 | 39110 ft | 423 kts | 145° |
| 2026-04-25 20:59 | 41.23752 | 13.78844 | 39109 ft | 424 kts | 144° |
| 2026-04-25 20:59 | 41.18991 | 13.83489 | 39113 ft | 424 kts | 145° |
| 2026-04-25 21:00 | 41.15840 | 13.86559 | 39112 ft | 423 kts | 145° |
| 2026-04-25 21:01 | 41.07140 | 13.95015 | 39109 ft | 423 kts | 144° |
| 2026-04-25 21:01 | 41.02391 | 13.99619 | 39108 ft | 423 kts | 144° |
| 2026-04-25 21:02 | 40.97639 | 14.04218 | 39108 ft | 423 kts | 144° |
| 2026-04-25 21:02 | 40.92882 | 14.08813 | 39101 ft | 423 kts | 145° |
| 2026-04-25 21:03 | 40.88158 | 14.13369 | 39124 ft | 423 kts | 144° |
| 2026-04-25 21:03 | 40.83406 | 14.17942 | 39125 ft | 423 kts | 145° |
| 2026-04-25 21:04 | 40.78649 | 14.22511 | 39132 ft | 423 kts | 145° |
| 2026-04-25 21:04 | 40.73886 | 14.27079 | 39106 ft | 422 kts | 145° |
| 2026-04-25 21:05 | 40.69130 | 14.31631 | 39108 ft | 422 kts | 145° |
| 2026-04-25 21:05 | 40.64378 | 14.36172 | 39113 ft | 422 kts | 144° |
| 2026-04-25 21:06 | 40.59634 | 14.40697 | 39113 ft | 420 kts | 144° |
| 2026-04-25 21:06 | 40.54929 | 14.45177 | 39115 ft | 421 kts | 144° |
| 2026-04-25 21:07 | 40.50178 | 14.49693 | 39122 ft | 421 kts | 144° |
| 2026-04-25 21:07 | 40.45433 | 14.54195 | 39112 ft | 421 kts | 145° |
| 2026-04-25 21:08 | 40.40675 | 14.58700 | 39117 ft | 422 kts | 144° |
| 2026-04-25 21:08 | 40.35905 | 14.63209 | 39122 ft | 421 kts | 144° |
| 2026-04-25 21:09 | 40.28772 | 14.69937 | 39117 ft | 421 kts | 144° |
| 2026-04-25 21:09 | 40.24016 | 14.74413 | 39121 ft | 421 kts | 144° |
| 2026-04-25 21:10 | 40.19265 | 14.78876 | 39131 ft | 421 kts | 144° |
| 2026-04-25 21:10 | 40.14582 | 14.83391 | 39123 ft | 421 kts | 141° |
| 2026-04-25 21:11 | 40.10100 | 14.88331 | 39130 ft | 422 kts | 139° |
| 2026-04-25 21:11 | 40.05661 | 14.93352 | 39134 ft | 422 kts | 140° |
| 2026-04-25 21:12 | 40.01225 | 14.98385 | 39134 ft | 422 kts | 139° |
| 2026-04-25 21:12 | 39.98259 | 15.01742 | 39141 ft | 422 kts | 140° |
| 2026-04-25 21:13 | 39.94565 | 15.05910 | 38948 ft | 423 kts | 139° |
| 2026-04-25 21:13 | 39.92326 | 15.08431 | 38166 ft | 428 kts | 139° |
| 2026-04-25 21:13 | 39.90826 | 15.10116 | 37644 ft | 430 kts | 139° |
| 2026-04-25 21:13 | 39.87789 | 15.13526 | 36817 ft | 430 kts | 140° |
| 2026-04-25 21:14 | 39.86292 | 15.15204 | 36440 ft | 429 kts | 140° |
| 2026-04-25 21:14 | 39.84031 | 15.17739 | 35815 ft | 429 kts | 140° |
| 2026-04-25 21:14 | 39.81763 | 15.20278 | 35155 ft | 431 kts | 140° |
| 2026-04-25 21:14 | 39.79485 | 15.22825 | 34474 ft | 433 kts | 140° |
| 2026-04-25 21:15 | 39.77202 | 15.25377 | 33887 ft | 432 kts | 140° |
| 2026-04-25 21:15 | 39.74934 | 15.27909 | 33397 ft | 427 kts | 140° |
| 2026-04-25 21:15 | 39.72692 | 15.30413 | 32907 ft | 423 kts | 140° |
| 2026-04-25 21:15 | 39.70475 | 15.32898 | 32423 ft | 419 kts | 140° |
| 2026-04-25 21:16 | 39.68283 | 15.35367 | 31952 ft | 415 kts | 140° |
| 2026-04-25 21:16 | 39.66138 | 15.37776 | 31477 ft | 412 kts | 140° |
| 2026-04-25 21:16 | 39.63972 | 15.40200 | 30994 ft | 409 kts | 140° |
| 2026-04-25 21:16 | 39.61819 | 15.42603 | 30513 ft | 406 kts | 140° |
| 2026-04-25 21:17 | 39.59685 | 15.44981 | 30000 ft | 404 kts | 140° |
| 2026-04-25 21:17 | 39.57557 | 15.47348 | 29488 ft | 400 kts | 140° |
| 2026-04-25 21:17 | 39.55453 | 15.49686 | 29013 ft | 396 kts | 140° |
| 2026-04-25 21:17 | 39.53369 | 15.51999 | 28537 ft | 393 kts | 140° |
| 2026-04-25 21:18 | 39.51302 | 15.54291 | 28056 ft | 390 kts | 140° |
| 2026-04-25 21:18 | 39.49246 | 15.56569 | 27570 ft | 387 kts | 140° |
| 2026-04-25 21:18 | 39.47202 | 15.58831 | 27087 ft | 385 kts | 140° |
| 2026-04-25 21:18 | 39.45176 | 15.61072 | 26614 ft | 382 kts | 140° |
| 2026-04-25 21:19 | 39.43161 | 15.63299 | 26151 ft | 380 kts | 140° |
| 2026-04-25 21:19 | 39.41156 | 15.65513 | 25679 ft | 378 kts | 140° |
| 2026-04-25 21:19 | 39.39183 | 15.67689 | 25220 ft | 377 kts | 140° |
| 2026-04-25 21:19 | 39.37186 | 15.69891 | 24747 ft | 376 kts | 140° |
| 2026-04-25 21:20 | 39.35193 | 15.72086 | 24276 ft | 375 kts | 140° |
| 2026-04-25 21:20 | 39.33880 | 15.73532 | 23951 ft | 375 kts | 140° |
| 2026-04-25 21:20 | 39.31230 | 15.76446 | 23242 ft | 374 kts | 140° |
| 2026-04-25 21:20 | 39.29260 | 15.78611 | 22770 ft | 370 kts | 140° |
| 2026-04-25 21:21 | 39.27305 | 15.80755 | 22308 ft | 367 kts | 140° |
| 2026-04-25 21:21 | 39.25361 | 15.82883 | 21842 ft | 364 kts | 140° |
| 2026-04-25 21:21 | 39.23464 | 15.84956 | 21382 ft | 361 kts | 140° |
| 2026-04-25 21:21 | 39.21550 | 15.87046 | 20917 ft | 359 kts | 140° |
| 2026-04-25 21:22 | 39.19691 | 15.89188 | 20453 ft | 356 kts | 136° |
| 2026-04-25 21:22 | 39.17924 | 15.91414 | 19989 ft | 354 kts | 135° |
| 2026-04-25 21:22 | 39.16183 | 15.93648 | 19525 ft | 352 kts | 135° |
| 2026-04-25 21:22 | 39.14446 | 15.95879 | 19058 ft | 350 kts | 135° |
| 2026-04-25 21:23 | 39.12727 | 15.98083 | 18607 ft | 348 kts | 135° |
| 2026-04-25 21:23 | 39.11037 | 16.00245 | 18117 ft | 346 kts | 135° |
| 2026-04-25 21:23 | 39.09335 | 16.02421 | 17651 ft | 342 kts | 135° |
| 2026-04-25 21:23 | 39.07655 | 16.04567 | 17209 ft | 339 kts | 135° |
| 2026-04-25 21:24 | 39.05990 | 16.06691 | 16764 ft | 336 kts | 135° |
| 2026-04-25 21:24 | 39.04337 | 16.08799 | 16319 ft | 333 kts | 135° |
| 2026-04-25 21:24 | 39.02701 | 16.10883 | 15855 ft | 330 kts | 135° |
| 2026-04-25 21:24 | 39.01079 | 16.12949 | 15427 ft | 327 kts | 135° |
| 2026-04-25 21:25 | 38.99464 | 16.15003 | 14991 ft | 325 kts | 135° |
| 2026-04-25 21:25 | 38.97865 | 16.17035 | 14560 ft | 322 kts | 135° |
| 2026-04-25 21:25 | 38.96274 | 16.19057 | 14129 ft | 320 kts | 135° |
| 2026-04-25 21:25 | 38.94689 | 16.21069 | 13687 ft | 318 kts | 135° |
| 2026-04-25 21:26 | 38.93126 | 16.23053 | 13257 ft | 315 kts | 135° |
| 2026-04-25 21:26 | 38.91570 | 16.25026 | 12841 ft | 313 kts | 134° |
| 2026-04-25 21:26 | 38.90201 | 16.27126 | 12436 ft | 309 kts | 123° |
| 2026-04-25 21:26 | 38.89096 | 16.29481 | 12014 ft | 307 kts | 118° |
| 2026-04-25 21:27 | 38.88062 | 16.31879 | 11590 ft | 306 kts | 118° |
| 2026-04-25 21:27 | 38.87043 | 16.34272 | 11174 ft | 304 kts | 118° |
| 2026-04-25 21:27 | 38.86027 | 16.36648 | 10771 ft | 303 kts | 116° |
| 2026-04-25 21:27 | 38.85015 | 16.39008 | 10360 ft | 302 kts | 116° |
| 2026-04-25 21:28 | 38.84012 | 16.41340 | 10116 ft | 294 kts | 116° |
| 2026-04-25 21:28 | 38.83024 | 16.43631 | 9693 ft | 292 kts | 116° |
| 2026-04-25 21:28 | 38.82048 | 16.45895 | 9281 ft | 288 kts | 116° |
| 2026-04-25 21:28 | 38.81084 | 16.48132 | 8931 ft | 286 kts | 116° |
| 2026-04-25 21:29 | 38.80122 | 16.50357 | 8557 ft | 284 kts | 116° |
| 2026-04-25 21:29 | 38.79166 | 16.52579 | 8199 ft | 282 kts | 116° |
| 2026-04-25 21:29 | 38.78483 | 16.54843 | 8097 ft | 265 kts | 102° |
| 2026-04-25 21:29 | 38.78133 | 16.57111 | 7870 ft | 257 kts | 98° |
| 2026-04-25 21:30 | 38.77863 | 16.59367 | 7523 ft | 255 kts | 94° |
| 2026-04-25 21:30 | 38.77894 | 16.61600 | 7209 ft | 248 kts | 76° |
| 2026-04-25 21:30 | 38.78589 | 16.63583 | 6888 ft | 243 kts | 51° |
| 2026-04-25 21:30 | 38.79392 | 16.64576 | 6673 ft | 242 kts | 34° |
| 2026-04-25 21:31 | 38.81479 | 16.65564 | 6244 ft | 240 kts | 11° |
| 2026-04-25 21:31 | 38.83127 | 16.65649 | 5850 ft | 242 kts | 352° |
| 2026-04-25 21:31 | 38.84697 | 16.64852 | 5412 ft | 242 kts | 324° |
| 2026-04-25 21:31 | 38.85772 | 16.63248 | 4992 ft | 242 kts | 298° |
| 2026-04-25 21:32 | 38.86262 | 16.61190 | 4460 ft | 242 kts | 283° |
| 2026-04-25 21:32 | 38.86530 | 16.59043 | 3856 ft | 242 kts | 281° |
| 2026-04-25 21:32 | 38.86765 | 16.56910 | 3290 ft | 240 kts | 279° |
| 2026-04-25 21:32 | 38.86997 | 16.54834 | 3026 ft | 227 kts | 280° |
| 2026-04-25 21:33 | 38.87210 | 16.52946 | 3013 ft | 201 kts | 279° |
| 2026-04-25 21:33 | 38.87402 | 16.51291 | 2992 ft | 176 kts | 279° |
| 2026-04-25 21:33 | 38.87575 | 16.49799 | 2987 ft | 164 kts | 280° |
| 2026-04-25 21:33 | 38.87744 | 16.48369 | 2978 ft | 165 kts | 280° |
| 2026-04-25 21:34 | 38.87919 | 16.46864 | 3014 ft | 173 kts | 280° |
| 2026-04-25 21:34 | 38.88094 | 16.45336 | 2991 ft | 173 kts | 279° |
| 2026-04-25 21:34 | 38.88263 | 16.43824 | 2830 ft | 169 kts | 279° |
| 2026-04-25 21:34 | 38.88432 | 16.42333 | 2614 ft | 168 kts | 280° |
| 2026-04-25 21:35 | 38.88607 | 16.40845 | 2386 ft | 168 kts | 281° |
| 2026-04-25 21:35 | 38.88781 | 16.39364 | 2171 ft | 168 kts | 282° |
| 2026-04-25 21:35 | 38.88952 | 16.37897 | 1934 ft | 169 kts | 281° |
| 2026-04-25 21:35 | 38.89125 | 16.36408 | 1714 ft | 168 kts | 282° |
| 2026-04-25 21:36 | 38.89295 | 16.34943 | 1501 ft | 164 kts | 282° |
| 2026-04-25 21:36 | 38.89469 | 16.33472 | 1163 ft | 174 kts | 280° |
| 2026-04-25 21:36 | 38.89652 | 16.31875 | 915 ft | 179 kts | 280° |
| 2026-04-25 21:36 | 38.89837 | 16.30346 | 649 ft | 169 kts | 279° |
| 2026-04-25 21:37 | 38.89990 | 16.28890 | 400 ft | 159 kts | 278° |
| 2026-04-25 21:37 | 38.90094 | 16.27963 | 268 ft | 160 kts | 278° |
| 2026-04-25 21:37 | 38.90323 | 16.26093 | 93 ft | 154 kts | 279° |
| 2026-04-25 21:37 | 38.90475 | 16.24837 | 42 ft | 117 kts | 278° |
| 2026-04-25 21:38 | 38.90561 | 16.24195 | 33 ft | 32 kts | 279° |
| 2026-04-25 21:38 | 38.90584 | 16.23930 | 33 ft | 31 kts | 275° |
| 2026-04-25 21:38 | 38.90639 | 16.23662 | 32 ft | 31 kts | 292° |
| 2026-04-25 21:38 | 38.90687 | 16.23551 | 32 ft | 1 kts | 316° |
| 2026-04-25 21:39 | 38.90693 | 16.23543 | 32 ft | 2 kts | 318° |
| 2026-04-25 21:39 | 38.90707 | 16.23528 | 32 ft | 3 kts | 318° |
| 2026-04-25 21:39 | 38.90730 | 16.23505 | 32 ft | 5 kts | 327° |
| 2026-04-25 21:39 | 38.90766 | 16.23487 | 31 ft | 6 kts | 353° |
| 2026-04-25 21:40 | 38.90808 | 16.23498 | 31 ft | 7 kts | 25° |
| 2026-04-25 21:40 | 38.90836 | 16.23543 | 31 ft | 7 kts | 71° |
| 2026-04-25 21:40 | 38.90835 | 16.23642 | 32 ft | 15 kts | 98° |
| 2026-04-25 21:40 | 38.90815 | 16.23808 | 33 ft | 22 kts | 100° |
| 2026-04-25 21:41 | 38.90791 | 16.24033 | 35 ft | 28 kts | 97° |
| 2026-04-25 21:41 | 38.90823 | 16.24299 | 37 ft | 32 kts | 96° |
| 2026-04-25 21:41 | 38.90799 | 16.24546 | 38 ft | 22 kts | 99° |
| 2026-04-25 21:41 | 38.90830 | 16.24612 | 39 ft | 8 kts | 1° |
| 2026-04-25 21:42 | 38.90840 | 16.24613 | 39 ft | 1 kts | 11° |
| 2026-04-25 21:42 | 38.90849 | 16.24616 | 39 ft | 0 kts | 18° |